Time;durP1;ratioP1;P1;durP2;ratioP2;P2;SDS_P1;SDS_P2;PMS_P1;PMS_P2;Temp;Humidity;BMP_temperature;BMP_pressure;BME280_temperature;BME280_humidity;BME280_pressure;Samples;Min_cycle;Max_cycle;Signal;HPM_P1;HPM_P2
2022/02/23 06:14:20;;;;;;;37.38;16.98;;;;;;;;;;5088134;27;20784;-62
2022/02/23 06:16:46;;;;;;;57.38;25.70;;;;;;;;;;5088465;28;20384;-61
2022/02/23 06:19:12;;;;;;;64.90;30.52;;;;;;;;;;5088345;28;20081;-62
2022/02/23 06:21:38;;;;;;;49.35;24.45;;;;;;;;;;5088216;28;20078;-66
2022/02/23 06:24:04;;;;;;;45.25;22.02;;;;;;;;;;5088241;28;20040;-62
2022/02/23 06:26:30;;;;;;;37.28;16.55;;;;;;;;;;5088187;28;20533;-63
2022/02/23 06:28:56;;;;;;;29.65;13.25;;;;;;;;;;5088107;28;20042;-67
2022/02/23 06:31:23;;;;;;;28.67;11.27;;;;;;;;;;5088448;28;20020;-63
2022/02/23 06:33:49;;;;;;;18.08;9.00;;;;;;;;;;5088269;28;20063;-62
2022/02/23 06:36:16;;;;;;;60.65;29.67;;;;;;;;;;5088078;28;20025;-64
2022/02/23 06:38:43;;;;;;;48.35;24.63;;;;;;;;;;5087984;28;20047;-63
2022/02/23 06:41:11;;;;;;;48.88;24.55;;;;;;;;;;5088065;28;20024;-63
2022/02/23 06:43:38;;;;;;;65.55;29.83;;;;;;;;;;5087974;28;20032;-63
2022/02/23 06:46:04;;;;;;;60.50;29.80;;;;;;;;;;5087965;28;20028;-62
2022/02/23 06:48:31;;;;;;;59.47;29.00;;;;;;;;;;5087346;28;20384;-63
2022/02/23 06:50:57;;;;;;;207.68;111.18;;;;;;;;;;5087382;28;20597;-63
2022/02/23 06:53:23;;;;;;;89.45;51.22;;;;;;;;;;5086015;28;20408;-63
2022/02/23 06:55:49;;;;;;;71.70;39.42;;;;;;;;;;5087630;28;20100;-63
2022/02/23 06:58:15;;;;;;;75.28;41.75;;;;;;;;;;5087623;28;20051;-62
2022/02/23 07:00:41;;;;;;;85.10;48.70;;;;;;;;;;5087328;28;20032;-63
2022/02/23 07:03:08;;;;;;;56.58;30.48;;;;;;;;;;5087104;28;20036;-63
2022/02/23 07:05:35;;;;;;;57.65;30.08;;;;;;;;;;5085581;28;20021;-63
2022/02/23 07:08:04;;;;;;;59.58;30.02;;;;;;;;;;5085977;28;20056;-62
2022/02/23 07:10:31;;;;;;;53.05;24.83;;;;;;;;;;5075256;28;20537;-62
2022/02/23 07:12:57;;;;;;;50.00;23.80;;;;;;;;;;5076147;28;20069;-62
2022/02/23 07:15:24;;;;;;;58.53;27.02;;;;;;;;;;5051819;28;20021;-65
2022/02/23 07:17:51;;;;;;;96.70;45.17;;;;;;;;;;5049473;28;20472;-63
2022/02/23 07:20:17;;;;;;;56.60;26.15;;;;;;;;;;5053076;28;20029;-63
2022/02/23 07:22:43;;;;;;;49.05;24.42;;;;;;;;;;5053334;28;20099;-63
2022/02/23 07:25:10;;;;;;;38.75;18.50;;;;;;;;;;5052505;28;20116;-64
2022/02/23 07:27:37;;;;;;;46.47;20.95;;;;;;;;;;5049792;28;20036;-64
2022/02/23 07:30:04;;;;;;;44.00;19.77;;;;;;;;;;5052233;28;20021;-63
2022/02/23 07:32:32;;;;;;;47.78;17.88;;;;;;;;;;5052336;28;20031;-63
2022/02/23 07:34:59;;;;;;;25.27;11.90;;;;;;;;;;5049480;28;20473;-64
2022/02/23 07:37:25;;;;;;;24.25;12.00;;;;;;;;;;5052070;28;20032;-63
2022/02/23 07:39:55;;;;;;;24.35;10.32;;;;;;;;;;5051976;28;20523;-63
2022/02/23 07:42:21;;;;;;;19.27;9.40;;;;;;;;;;5049996;28;20491;-61
2022/02/23 07:44:48;;;;;;;18.80;9.25;;;;;;;;;;5052132;28;20036;-63
2022/02/23 07:47:15;;;;;;;19.52;9.00;;;;;;;;;;5052842;28;20013;-64
2022/02/23 07:49:41;;;;;;;18.92;8.70;;;;;;;;;;5052836;28;20029;-64
2022/02/23 07:52:08;;;;;;;22.75;10.07;;;;;;;;;;5053397;28;20419;-65
2022/02/23 07:54:34;;;;;;;22.70;9.93;;;;;;;;;;5053220;28;20109;-64
2022/02/23 07:57:00;;;;;;;22.77;10.88;;;;;;;;;;5051827;28;20091;-65
2022/02/23 07:59:27;;;;;;;22.08;9.63;;;;;;;;;;5053025;28;20491;-66
2022/02/23 08:01:53;;;;;;;18.08;6.63;;;;;;;;;;5041291;28;20025;-62
2022/02/23 08:04:20;;;;;;;16.30;6.55;;;;;;;;;;5032474;28;20036;-63
2022/02/23 08:06:46;;;;;;;12.60;5.82;;;;;;;;;;5040221;28;20025;-66
2022/02/23 08:09:12;;;;;;;12.55;6.57;;;;;;;;;;5042494;28;20032;-64
2022/02/23 08:11:39;;;;;;;16.00;6.22;;;;;;;;;;5041301;28;20044;-63
2022/02/23 08:14:09;;;;;;;14.85;6.53;;;;;;;;;;5041591;28;20056;-62
2022/02/23 08:19:39;;;;;;;13.88;5.32;;;;;;;;;;5042285;28;20407;-64
2022/02/23 08:22:09;;;;;;;15.93;6.20;;;;;;;;;;5042799;28;20384;-65
2022/02/23 08:24:37;;;;;;;24.08;11.32;;;;;;;;;;5042440;28;20065;-65
2022/02/23 08:27:04;;;;;;;39.75;16.15;;;;;;;;;;5040171;28;20056;-65
2022/02/23 08:29:30;;;;;;;87.65;41.63;;;;;;;;;;5041728;28;20483;-65
2022/02/23 08:31:57;;;;;;;18.20;8.65;;;;;;;;;;5040285;28;20033;-63
2022/02/23 08:34:24;;;;;;;30.50;13.68;;;;;;;;;;5031912;28;20417;-64
2022/02/23 08:36:50;;;;;;;26.02;11.75;;;;;;;;;;5031819;28;20473;-63
2022/02/23 08:39:16;;;;;;;15.02;5.65;;;;;;;;;;5039585;28;20117;-63
2022/02/23 08:41:44;;;;;;;11.75;5.13;;;;;;;;;;5051970;28;20500;-63
2022/02/23 08:44:10;;;;;;;12.27;6.22;;;;;;;;;;5051875;28;20503;-63
2022/02/23 08:46:36;;;;;;;17.60;6.82;;;;;;;;;;5051057;28;20024;-61
2022/02/23 08:49:03;;;;;;;17.73;6.88;;;;;;;;;;5050798;28;20215;-63
2022/02/23 08:51:29;;;;;;;17.83;7.70;;;;;;;;;;5050573;28;20036;-61
2022/02/23 08:53:55;;;;;;;24.23;7.47;;;;;;;;;;5037245;28;20064;-62
2022/02/23 08:56:22;;;;;;;19.75;6.15;;;;;;;;;;5048513;28;20122;-61
2022/02/23 08:58:48;;;;;;;13.75;5.22;;;;;;;;;;5050097;28;20032;-61
2022/02/23 09:01:14;;;;;;;20.05;7.65;;;;;;;;;;5050728;28;20056;-64
2022/02/23 09:03:41;;;;;;;30.90;17.60;;;;;;;;;;5049398;28;20043;-62
2022/02/23 09:06:07;;;;;;;20.63;10.02;;;;;;;;;;5049305;28;20037;-62
2022/02/23 09:08:33;;;;;;;12.02;5.63;;;;;;;;;;5050602;28;20025;-62
2022/02/23 09:10:59;;;;;;;12.48;5.03;;;;;;;;;;5050781;28;20565;-62
2022/02/23 09:13:25;;;;;;;11.48;5.20;;;;;;;;;;5049696;28;20053;-62
2022/02/23 09:15:51;;;;;;;14.48;5.95;;;;;;;;;;5050121;28;20029;-62
2022/02/23 09:18:18;;;;;;;12.68;5.55;;;;;;;;;;5050671;28;20017;-63
2022/02/23 09:20:44;;;;;;;16.85;5.97;;;;;;;;;;5049479;28;20479;-62
2022/02/23 09:23:10;;;;;;;14.23;5.18;;;;;;;;;;5049189;28;20025;-63
2022/02/23 09:25:36;;;;;;;14.55;6.03;;;;;;;;;;5038145;28;20056;-62
2022/02/23 09:28:02;;;;;;;15.98;5.43;;;;;;;;;;5048138;28;20506;-62
2022/02/23 09:30:28;;;;;;;16.50;6.30;;;;;;;;;;5046129;28;20086;-63
2022/02/23 09:32:54;;;;;;;15.30;6.30;;;;;;;;;;5037173;28;20033;-62
2022/02/23 09:35:21;;;;;;;17.90;5.68;;;;;;;;;;5049082;28;20040;-62
2022/02/23 09:37:47;;;;;;;14.75;6.50;;;;;;;;;;5048703;28;20401;-63
2022/02/23 09:40:15;;;;;;;14.63;5.82;;;;;;;;;;5039644;28;20093;-64
2022/02/23 09:42:41;;;;;;;15.95;6.90;;;;;;;;;;5038375;28;20025;-63
2022/02/23 09:45:08;;;;;;;17.70;7.97;;;;;;;;;;5047513;28;20131;-62
2022/02/23 09:47:35;;;;;;;13.25;6.07;;;;;;;;;;5049225;28;20025;-61
2022/02/23 09:50:05;;;;;;;13.32;5.95;;;;;;;;;;5044791;28;20023;-62
2022/02/23 09:52:32;;;;;;;17.10;8.38;;;;;;;;;;5049318;28;20017;-62
2022/02/23 09:54:59;;;;;;;14.43;6.15;;;;;;;;;;5037570;28;20485;-62
2022/02/23 09:57:25;;;;;;;10.45;5.20;;;;;;;;;;5048653;28;20023;-62
2022/02/23 09:59:51;;;;;;;12.60;5.07;;;;;;;;;;5047995;28;20480;-62
2022/02/23 10:02:17;;;;;;;14.15;6.75;;;;;;;;;;5039417;28;20041;-62
2022/02/23 10:04:43;;;;;;;16.77;7.93;;;;;;;;;;5037967;28;20021;-62
2022/02/23 10:07:09;;;;;;;23.33;9.18;;;;;;;;;;5048454;28;20081;-61
2022/02/23 10:09:42;;;;;;;12.77;5.20;;;;;;;;;;5049091;28;20055;-62
2022/02/23 10:12:09;;;;;;;13.48;5.35;;;;;;;;;;5047521;28;20789;-61
2022/02/23 10:14:35;;;;;;;13.45;5.57;;;;;;;;;;5049550;28;20029;-61
2022/02/23 10:17:01;;;;;;;13.98;5.55;;;;;;;;;;5041663;28;20103;-63
2022/02/23 10:19:28;;;;;;;14.30;5.28;;;;;;;;;;5048704;28;20029;-63
2022/02/23 10:21:56;;;;;;;13.95;5.35;;;;;;;;;;5039907;28;20055;-65
2022/02/23 10:24:23;;;;;;;12.98;5.10;;;;;;;;;;5030961;28;20040;-63
2022/02/23 10:26:55;;;;;;;15.32;5.80;;;;;;;;;;5048039;28;20072;-63
2022/02/23 10:29:25;;;;;;;15.65;6.93;;;;;;;;;;5049252;28;20524;-63
2022/02/23 10:31:51;;;;;;;17.20;7.15;;;;;;;;;;5049867;28;20029;-63
2022/02/23 10:34:20;;;;;;;39.72;21.60;;;;;;;;;;5049828;28;20025;-63
2022/02/23 10:37:00;;;;;;;41.38;23.25;;;;;;;;;;5050090;28;20021;-63
2022/02/23 10:39:34;;;;;;;20.35;8.60;;;;;;;;;;5049150;28;20039;-64
2022/02/23 10:42:04;;;;;;;12.07;4.78;;;;;;;;;;5048655;28;20563;-63
2022/02/23 10:44:32;;;;;;;15.43;5.00;;;;;;;;;;5049247;28;20114;-63
2022/02/23 10:46:59;;;;;;;13.48;4.72;;;;;;;;;;5048472;28;20080;-63
2022/02/23 10:49:25;;;;;;;10.77;4.10;;;;;;;;;;5051162;28;20043;-64
2022/02/23 10:51:55;;;;;;;15.25;5.30;;;;;;;;;;5053537;28;20029;-64
2022/02/23 10:54:22;;;;;;;14.95;5.05;;;;;;;;;;5052826;28;20054;-62
2022/02/23 10:56:48;;;;;;;14.40;4.75;;;;;;;;;;5053260;28;20431;-64
2022/02/23 10:59:15;;;;;;;16.80;5.35;;;;;;;;;;5043145;28;20079;-63
2022/02/23 11:01:42;;;;;;;21.35;7.05;;;;;;;;;;5045476;28;20033;-63
2022/02/23 11:04:09;;;;;;;15.98;5.45;;;;;;;;;;5052917;28;20067;-62
2022/02/23 11:06:36;;;;;;;16.00;5.32;;;;;;;;;;5052117;28;20040;-62
2022/02/23 11:09:04;;;;;;;15.75;5.18;;;;;;;;;;5042064;28;20053;-62
2022/02/23 11:11:30;;;;;;;18.92;6.40;;;;;;;;;;5052079;28;20037;-60
2022/02/23 11:13:58;;;;;;;37.72;6.57;;;;;;;;;;5039720;28;20049;-62
2022/02/23 11:16:25;;;;;;;12.40;5.07;;;;;;;;;;5033056;28;20061;-61
2022/02/23 11:18:52;;;;;;;14.38;5.47;;;;;;;;;;5032866;28;20033;-62
2022/02/23 11:21:19;;;;;;;15.00;5.65;;;;;;;;;;5032935;28;20021;-62
2022/02/23 11:23:49;;;;;;;13.20;5.95;;;;;;;;;;5031385;28;20077;-61
2022/02/23 11:26:17;;;;;;;15.23;6.70;;;;;;;;;;5035554;28;20029;-62
2022/02/23 11:29:02;;;;;;;15.18;6.30;;;;;;;;;;5037261;28;20033;-62
2022/02/23 11:31:28;;;;;;;10.88;4.50;;;;;;;;;;5031896;28;20033;-63
2022/02/23 11:33:57;;;;;;;11.20;5.10;;;;;;;;;;5042158;28;20032;-62
2022/02/23 11:36:42;;;;;;;22.92;9.35;;;;;;;;;;5048646;28;20021;-64
2022/02/23 11:39:32;;;;;;;31.27;12.23;;;;;;;;;;5048878;28;20025;-65
2022/02/23 11:42:00;;;;;;;16.08;6.57;;;;;;;;;;5051411;28;20552;-63
2022/02/23 11:44:27;;;;;;;11.18;4.25;;;;;;;;;;5041129;28;20451;-63
2022/02/23 11:46:59;;;;;;;11.05;4.22;;;;;;;;;;5043272;28;20541;-62
2022/02/23 11:49:29;;;;;;;7.53;3.35;;;;;;;;;;5035327;28;20040;-64
2022/02/23 11:52:07;;;;;;;10.90;5.28;;;;;;;;;;5033274;28;20471;-65
2022/02/23 11:54:51;;;;;;;22.08;8.57;;;;;;;;;;5033493;28;20021;-62
2022/02/23 11:57:38;;;;;;;13.88;5.15;;;;;;;;;;5033093;28;20033;-63
2022/02/23 12:00:06;;;;;;;14.10;4.85;;;;;;;;;;5033045;28;20025;-63
2022/02/23 12:02:32;;;;;;;12.20;5.63;;;;;;;;;;5032960;28;20037;-61
2022/02/23 12:04:59;;;;;;;18.30;7.03;;;;;;;;;;5032845;28;20079;-61
2022/02/23 12:07:26;;;;;;;12.23;5.30;;;;;;;;;;5064670;28;20478;-63
2022/02/23 12:09:52;;;;;;;15.50;5.13;;;;;;;;;;5031174;28;20075;-61
2022/02/23 12:12:37;;;;;;;13.32;4.13;;;;;;;;;;5031784;28;20029;-61
2022/02/23 12:15:05;;;;;;;14.20;4.68;;;;;;;;;;5031136;28;20029;-61
2022/02/23 12:18:01;;;;;;;14.38;5.10;;;;;;;;;;5031378;28;20025;-62
2022/02/23 12:20:36;;;;;;;14.25;4.40;;;;;;;;;;5049481;28;20048;-61
2022/02/23 12:23:06;;;;;;;12.75;4.97;;;;;;;;;;5054790;28;20106;-62
2022/02/23 12:25:50;;;;;;;14.77;4.72;;;;;;;;;;5070121;28;20045;-62
2022/02/23 12:28:17;;;;;;;12.77;4.93;;;;;;;;;;5070045;28;20033;-62
2022/02/23 12:30:49;;;;;;;16.08;5.25;;;;;;;;;;5069785;28;20044;-60
2022/02/23 12:33:15;;;;;;;11.65;4.72;;;;;;;;;;5069574;28;20071;-60
2022/02/23 12:35:43;;;;;;;16.85;6.85;;;;;;;;;;5069117;28;20039;-60
2022/02/23 12:38:09;;;;;;;19.23;6.72;;;;;;;;;;5069476;28;20043;-62
2022/02/23 12:40:35;;;;;;;22.98;8.63;;;;;;;;;;5068849;28;20068;-62
2022/02/23 12:43:07;;;;;;;14.07;6.07;;;;;;;;;;5068837;28;20122;-62
2022/02/23 12:45:45;;;;;;;14.00;5.75;;;;;;;;;;5069085;28;20074;-62
2022/02/23 12:48:12;;;;;;;16.83;7.00;;;;;;;;;;5069141;28;20527;-61
2022/02/23 12:50:38;;;;;;;15.02;5.82;;;;;;;;;;5066702;28;20120;-60
2022/02/23 12:53:04;;;;;;;14.63;6.07;;;;;;;;;;5068664;28;20229;-62
2022/02/23 12:55:31;;;;;;;15.68;6.90;;;;;;;;;;5068558;28;20040;-62
2022/02/23 12:57:57;;;;;;;17.63;6.38;;;;;;;;;;5051259;28;20037;-62
2022/02/23 13:00:24;;;;;;;12.55;5.97;;;;;;;;;;5050839;28;20033;-64
2022/02/23 13:02:50;;;;;;;16.35;6.15;;;;;;;;;;5050141;28;20033;-62
2022/02/23 13:05:17;;;;;;;12.88;5.57;;;;;;;;;;5050537;28;20021;-62
2022/02/23 13:07:43;;;;;;;14.77;5.60;;;;;;;;;;5050281;28;20025;-62
2022/02/23 13:10:09;;;;;;;14.63;5.47;;;;;;;;;;5050769;28;20124;-63
2022/02/23 13:12:36;;;;;;;8.93;3.28;;;;;;;;;;5050477;28;20120;-62
2022/02/23 13:15:05;;;;;;;8.30;3.10;;;;;;;;;;5051233;28;20048;-63
2022/02/23 13:17:31;;;;;;;9.05;3.20;;;;;;;;;;5050983;28;20033;-60
2022/02/23 13:19:57;;;;;;;9.85;3.58;;;;;;;;;;5051368;28;20052;-61
2022/02/23 13:22:30;;;;;;;11.93;3.72;;;;;;;;;;5050690;28;20043;-60
2022/02/23 13:24:57;;;;;;;13.68;3.55;;;;;;;;;;5051070;28;20025;-60
2022/02/23 13:27:30;;;;;;;10.35;3.25;;;;;;;;;;5051286;28;20033;-59
2022/02/23 13:30:01;;;;;;;11.85;3.65;;;;;;;;;;5050530;28;20032;-61
2022/02/23 13:32:37;;;;;;;12.68;3.97;;;;;;;;;;5050883;28;20044;-60
2022/02/23 13:35:07;;;;;;;7.68;3.40;;;;;;;;;;5050335;28;20480;-61
2022/02/23 13:37:39;;;;;;;10.05;3.63;;;;;;;;;;5050682;28;20067;-62
2022/02/23 13:40:15;;;;;;;8.30;3.65;;;;;;;;;;5050453;28;20025;-62
2022/02/23 13:42:45;;;;;;;10.98;4.05;;;;;;;;;;5049556;28;20037;-62
2022/02/23 13:45:22;;;;;;;10.90;3.92;;;;;;;;;;5049691;28;20032;-61
2022/02/23 13:47:49;;;;;;;9.70;3.50;;;;;;;;;;5050962;28;20028;-61
2022/02/23 13:50:20;;;;;;;10.05;4.30;;;;;;;;;;5050897;28;20116;-62
2022/02/23 13:53:02;;;;;;;11.68;4.32;;;;;;;;;;5050395;28;20473;-63
2022/02/23 13:55:28;;;;;;;10.63;4.05;;;;;;;;;;5050842;28;20025;-61
2022/02/23 13:57:54;;;;;;;12.43;3.90;;;;;;;;;;5050409;28;20024;-61
2022/02/23 14:00:26;;;;;;;12.48;3.90;;;;;;;;;;5050527;28;20068;-61
2022/02/23 14:03:11;;;;;;;12.38;4.38;;;;;;;;;;5049943;28;20037;-61
2022/02/23 14:05:38;;;;;;;11.73;4.30;;;;;;;;;;5050186;28;20476;-62
2022/02/23 14:08:05;;;;;;;8.73;3.72;;;;;;;;;;5050709;28;20037;-62
2022/02/23 14:10:32;;;;;;;9.68;4.38;;;;;;;;;;5050217;28;20553;-63
2022/02/23 14:13:01;;;;;;;12.40;4.30;;;;;;;;;;5050227;28;20060;-63
2022/02/23 14:15:28;;;;;;;13.68;3.75;;;;;;;;;;5050206;28;20036;-62
2022/02/23 14:17:54;;;;;;;12.88;4.43;;;;;;;;;;5050046;28;20032;-63
2022/02/23 14:20:21;;;;;;;14.18;4.95;;;;;;;;;;5048938;28;20061;-61
2022/02/23 14:22:58;;;;;;;15.75;5.05;;;;;;;;;;5049782;28;20041;-62
2022/02/23 14:25:24;;;;;;;11.40;4.45;;;;;;;;;;5053736;28;20124;-62
2022/02/23 14:27:51;;;;;;;13.32;4.43;;;;;;;;;;5053099;28;20549;-61
2022/02/23 14:30:18;;;;;;;11.35;4.35;;;;;;;;;;5050634;28;20092;-62
2022/02/23 14:32:45;;;;;;;13.95;3.95;;;;;;;;;;5053476;28;20021;-62
2022/02/23 14:35:12;;;;;;;11.90;3.60;;;;;;;;;;5053232;28;20044;-63
2022/02/23 14:37:49;;;;;;;7.95;3.90;;;;;;;;;;5049937;28;20490;-62
2022/02/23 14:40:17;;;;;;;14.43;4.38;;;;;;;;;;5052117;28;20028;-62
2022/02/23 14:42:44;;;;;;;10.98;3.22;;;;;;;;;;5052390;28;20041;-63
2022/02/23 14:45:11;;;;;;;9.07;3.35;;;;;;;;;;5052786;28;20036;-62
2022/02/23 14:47:38;;;;;;;17.05;6.00;;;;;;;;;;5040274;28;20138;-62
2022/02/23 14:50:10;;;;;;;8.40;3.28;;;;;;;;;;5053518;28;20017;-62
2022/02/23 14:52:38;;;;;;;6.38;2.72;;;;;;;;;;5053386;28;20024;-62
2022/02/23 14:55:05;;;;;;;12.80;4.38;;;;;;;;;;5044234;28;20328;-62
2022/02/23 14:57:31;;;;;;;12.38;4.20;;;;;;;;;;5043152;28;20046;-65
2022/02/23 14:59:58;;;;;;;11.60;4.70;;;;;;;;;;5053577;28;20384;-64
2022/02/23 15:02:24;;;;;;;15.32;4.78;;;;;;;;;;5053119;28;20033;-65
2022/02/23 15:04:50;;;;;;;11.73;4.65;;;;;;;;;;5053725;28;20040;-63
2022/02/23 15:07:17;;;;;;;8.52;3.80;;;;;;;;;;5053587;28;20035;-64
2022/02/23 15:09:43;;;;;;;9.70;4.03;;;;;;;;;;5053441;28;20032;-63
2022/02/23 15:12:11;;;;;;;10.50;3.75;;;;;;;;;;5052795;28;20362;-64
2022/02/23 15:14:37;;;;;;;13.25;4.00;;;;;;;;;;5053291;28;20491;-63
2022/02/23 15:17:04;;;;;;;12.10;4.35;;;;;;;;;;5053720;28;20562;-64
2022/02/23 15:19:30;;;;;;;8.48;3.88;;;;;;;;;;5053761;28;20029;-63
2022/02/23 15:21:56;;;;;;;11.82;4.10;;;;;;;;;;5053402;28;20055;-63
2022/02/23 15:24:23;;;;;;;10.75;3.88;;;;;;;;;;5053425;28;20492;-64
2022/02/23 15:26:49;;;;;;;10.93;4.35;;;;;;;;;;5053484;28;20100;-65
2022/02/23 15:29:15;;;;;;;12.00;4.50;;;;;;;;;;5053554;28;20032;-64
2022/02/23 15:31:42;;;;;;;12.82;4.72;;;;;;;;;;5053394;28;20067;-64
2022/02/23 15:34:10;;;;;;;9.07;4.13;;;;;;;;;;5053294;28;20047;-63
2022/02/23 15:36:40;;;;;;;10.07;4.30;;;;;;;;;;5052855;28;20108;-63
2022/02/23 15:39:06;;;;;;;12.27;4.22;;;;;;;;;;5053398;28;20103;-62
2022/02/23 15:41:33;;;;;;;11.10;3.60;;;;;;;;;;5053014;28;20025;-63
2022/02/23 15:43:59;;;;;;;10.20;4.07;;;;;;;;;;5053142;28;20465;-62
2022/02/23 15:46:26;;;;;;;10.02;3.83;;;;;;;;;;5052921;28;20069;-63
2022/02/23 15:48:52;;;;;;;15.00;5.95;;;;;;;;;;5052821;28;20048;-63
2022/02/23 15:51:18;;;;;;;13.30;5.55;;;;;;;;;;5051819;28;20397;-63
2022/02/23 15:53:44;;;;;;;13.50;5.20;;;;;;;;;;5052464;28;20044;-62
2022/02/23 15:56:11;;;;;;;12.02;4.97;;;;;;;;;;5052668;28;20025;-61
2022/02/23 15:58:37;;;;;;;13.88;5.18;;;;;;;;;;5052469;28;20463;-61
2022/02/23 16:01:03;;;;;;;12.20;5.43;;;;;;;;;;5051704;28;20135;-63
2022/02/23 16:03:29;;;;;;;13.90;6.30;;;;;;;;;;5052151;28;20033;-63
2022/02/23 16:05:55;;;;;;;10.98;5.18;;;;;;;;;;5052738;28;20025;-63
2022/02/23 16:08:21;;;;;;;10.40;4.55;;;;;;;;;;5052155;28;20029;-63
2022/02/23 16:10:47;;;;;;;15.65;5.97;;;;;;;;;;5051797;28;20033;-61
2022/02/23 16:13:13;;;;;;;11.85;5.47;;;;;;;;;;5050562;28;20052;-60
2022/02/23 16:15:40;;;;;;;12.82;5.25;;;;;;;;;;5052721;28;20025;-61
2022/02/23 16:18:06;;;;;;;12.18;5.43;;;;;;;;;;5052096;28;20064;-62
2022/02/23 16:20:32;;;;;;;11.63;4.50;;;;;;;;;;5052401;28;20048;-63
2022/02/23 16:22:59;;;;;;;9.85;3.83;;;;;;;;;;5051929;28;20114;-61
2022/02/23 16:25:25;;;;;;;10.43;4.30;;;;;;;;;;5051824;28;20086;-65
2022/02/23 16:27:51;;;;;;;11.48;3.88;;;;;;;;;;5051815;28;20056;-65
2022/02/23 16:30:17;;;;;;;14.00;5.55;;;;;;;;;;5052151;28;20048;-63
2022/02/23 16:32:43;;;;;;;12.70;3.85;;;;;;;;;;5051633;28;20025;-60
2022/02/23 16:35:10;;;;;;;10.15;3.20;;;;;;;;;;5050608;28;20496;-60
2022/02/23 16:37:36;;;;;;;13.98;3.63;;;;;;;;;;5051204;28;20025;-62
2022/02/23 16:40:02;;;;;;;9.02;3.03;;;;;;;;;;5048419;28;20039;-63
2022/02/23 16:42:28;;;;;;;9.40;3.30;;;;;;;;;;5051343;28;20036;-63
2022/02/23 16:44:55;;;;;;;11.85;4.00;;;;;;;;;;5051747;28;20031;-65
2022/02/23 16:47:21;;;;;;;12.30;3.95;;;;;;;;;;5051200;28;20029;-64
2022/02/23 16:49:47;;;;;;;9.98;3.15;;;;;;;;;;5051454;28;20028;-63
2022/02/23 16:52:13;;;;;;;8.95;2.70;;;;;;;;;;5051782;28;20059;-63
2022/02/23 16:54:39;;;;;;;11.85;4.13;;;;;;;;;;5051739;28;20469;-63
2022/02/23 16:57:06;;;;;;;7.78;3.58;;;;;;;;;;5051894;28;20037;-63
2022/02/23 16:59:32;;;;;;;10.70;3.30;;;;;;;;;;5051628;28;20503;-62
2022/02/23 17:01:58;;;;;;;9.25;3.00;;;;;;;;;;5051036;28;20021;-63
2022/02/23 17:04:24;;;;;;;14.77;4.25;;;;;;;;;;5051187;28;20037;-62
2022/02/23 17:06:52;;;;;;;12.43;3.10;;;;;;;;;;5051579;28;20033;-64
2022/02/23 17:09:18;;;;;;;8.80;3.33;;;;;;;;;;5051640;28;20025;-63
2022/02/23 17:11:44;;;;;;;10.95;4.07;;;;;;;;;;5051095;28;20060;-64
2022/02/23 17:14:11;;;;;;;12.93;3.50;;;;;;;;;;5051258;28;20075;-63
2022/02/23 17:16:37;;;;;;;8.65;3.55;;;;;;;;;;5051464;28;20075;-64
2022/02/23 17:19:03;;;;;;;10.52;3.05;;;;;;;;;;5050850;28;20021;-63
2022/02/23 17:21:29;;;;;;;13.88;2.92;;;;;;;;;;5050186;28;20049;-62
2022/02/23 17:23:55;;;;;;;12.38;3.28;;;;;;;;;;5051121;28;20029;-66
2022/02/23 17:26:21;;;;;;;12.45;3.65;;;;;;;;;;5051113;28;20100;-63
2022/02/23 17:28:47;;;;;;;13.20;3.78;;;;;;;;;;5051173;28;20079;-62
2022/02/23 17:31:13;;;;;;;13.65;3.92;;;;;;;;;;5050079;28;20025;-61
2022/02/23 17:33:40;;;;;;;10.75;4.10;;;;;;;;;;5050369;28;20020;-62
2022/02/23 17:36:07;;;;;;;11.77;3.92;;;;;;;;;;5049994;28;20028;-62
2022/02/23 17:38:34;;;;;;;15.23;4.53;;;;;;;;;;5050457;28;20052;-63
2022/02/23 17:41:00;;;;;;;13.25;3.83;;;;;;;;;;5050812;28;20025;-63
2022/02/23 17:43:26;;;;;;;11.93;5.68;;;;;;;;;;5050603;28;20064;-61
2022/02/23 17:45:55;;;;;;;15.35;5.93;;;;;;;;;;5050289;28;20043;-65
2022/02/23 17:48:21;;;;;;;13.20;4.97;;;;;;;;;;5050827;28;20123;-63
2022/02/23 17:50:48;;;;;;;15.05;5.47;;;;;;;;;;5050890;28;20033;-62
2022/02/23 17:53:14;;;;;;;15.82;5.97;;;;;;;;;;5050159;28;20036;-62
2022/02/23 17:55:40;;;;;;;10.25;4.60;;;;;;;;;;5050897;28;20092;-62
2022/02/23 17:58:06;;;;;;;13.82;4.30;;;;;;;;;;5050448;28;20040;-62
2022/02/23 18:00:35;;;;;;;19.63;6.97;;;;;;;;;;5050484;28;20120;-65
2022/02/23 18:03:01;;;;;;;17.33;5.93;;;;;;;;;;5047226;28;20508;-63
2022/02/23 18:05:27;;;;;;;13.25;4.90;;;;;;;;;;5049200;28;20029;-71
2022/02/23 18:07:53;;;;;;;14.40;5.50;;;;;;;;;;5049221;28;20032;-63
2022/02/23 18:10:19;;;;;;;50.35;13.00;;;;;;;;;;5047232;28;20100;-63
2022/02/23 18:12:45;;;;;;;63.28;17.45;;;;;;;;;;5049148;28;20045;-64
2022/02/23 18:15:14;;;;;;;67.53;20.98;;;;;;;;;;5049945;28;20437;-63
2022/02/23 18:17:40;;;;;;;25.65;8.05;;;;;;;;;;5049736;28;20543;-64
2022/02/23 18:20:07;;;;;;;92.20;32.28;;;;;;;;;;5049825;28;20029;-64
2022/02/23 18:22:33;;;;;;;153.63;51.40;;;;;;;;;;5049475;28;20059;-63
2022/02/23 18:24:59;;;;;;;51.50;20.27;;;;;;;;;;5050334;28;20061;-63
2022/02/23 18:27:25;;;;;;;136.05;45.58;;;;;;;;;;5049920;28;20031;-63
2022/02/23 18:29:51;;;;;;;14.32;4.82;;;;;;;;;;5050415;28;20456;-64
2022/02/23 18:32:17;;;;;;;91.50;33.33;;;;;;;;;;5050410;28;20036;-65
2022/02/23 18:34:44;;;;;;;71.20;25.27;;;;;;;;;;5050161;28;20083;-62
2022/02/23 18:37:10;;;;;;;83.32;28.45;;;;;;;;;;5050463;28;20036;-62
2022/02/23 18:39:36;;;;;;;69.45;24.42;;;;;;;;;;5050191;28;20103;-63
2022/02/23 18:42:05;;;;;;;52.22;19.98;;;;;;;;;;5050350;28;20045;-63
2022/02/23 18:44:31;;;;;;;66.65;23.45;;;;;;;;;;5049316;28;20132;-62
2022/02/23 18:46:57;;;;;;;36.92;14.05;;;;;;;;;;5049184;28;20044;-62
2022/02/23 18:49:23;;;;;;;22.77;8.82;;;;;;;;;;5048558;28;20021;-60
2022/02/23 18:51:49;;;;;;;41.83;14.65;;;;;;;;;;5048740;28;20552;-60
2022/02/23 18:54:15;;;;;;;18.75;6.35;;;;;;;;;;5048874;28;20028;-62
2022/02/23 18:56:41;;;;;;;48.65;17.15;;;;;;;;;;5043501;28;20469;-63
2022/02/23 18:59:07;;;;;;;20.25;7.97;;;;;;;;;;5048456;28;20053;-62
2022/02/23 19:01:33;;;;;;;20.77;6.60;;;;;;;;;;5049575;28;20036;-62
2022/02/23 19:04:01;;;;;;;34.08;12.65;;;;;;;;;;5049316;28;20047;-61
2022/02/23 19:06:30;;;;;;;15.77;6.10;;;;;;;;;;5048859;28;20048;-62
2022/02/23 19:08:56;;;;;;;18.80;6.13;;;;;;;;;;5038096;28;20032;-61
2022/02/23 19:11:22;;;;;;;18.88;6.43;;;;;;;;;;5051388;28;20025;-61
2022/02/23 19:13:48;;;;;;;14.85;6.28;;;;;;;;;;5052116;28;20045;-62
2022/02/23 19:16:14;;;;;;;17.25;6.80;;;;;;;;;;5042475;28;20029;-62
2022/02/23 19:18:40;;;;;;;18.45;7.30;;;;;;;;;;5041016;28;20022;-62
2022/02/23 19:21:07;;;;;;;18.00;6.50;;;;;;;;;;5052191;28;20534;-61
2022/02/23 19:23:33;;;;;;;17.58;6.82;;;;;;;;;;5052348;28;20566;-62
2022/02/23 19:25:59;;;;;;;22.50;8.88;;;;;;;;;;5041362;28;20022;-61
2022/02/23 19:28:28;;;;;;;24.98;12.90;;;;;;;;;;5052165;28;20484;-62
2022/02/23 19:30:54;;;;;;;21.65;8.43;;;;;;;;;;5052209;28;20024;-62
2022/02/23 19:33:20;;;;;;;19.85;8.02;;;;;;;;;;5051874;28;20492;-63
2022/02/23 19:35:46;;;;;;;18.70;7.40;;;;;;;;;;5040576;28;20492;-62
2022/02/23 19:38:12;;;;;;;23.63;7.50;;;;;;;;;;5042955;28;20182;-62
2022/02/23 19:40:38;;;;;;;16.67;7.18;;;;;;;;;;5041576;28;20026;-62
2022/02/23 19:43:05;;;;;;;18.17;7.40;;;;;;;;;;5041208;28;20485;-63
2022/02/23 19:45:31;;;;;;;14.50;7.07;;;;;;;;;;5043080;28;20025;-61
2022/02/23 19:47:57;;;;;;;17.00;6.88;;;;;;;;;;5041430;28;20018;-62
2022/02/23 19:50:23;;;;;;;17.30;7.28;;;;;;;;;;5052117;28;20021;-61
2022/02/23 19:52:50;;;;;;;17.13;6.57;;;;;;;;;;5051888;28;20024;-62
2022/02/23 19:55:16;;;;;;;19.05;7.70;;;;;;;;;;5051558;28;20017;-62
2022/02/23 19:57:43;;;;;;;27.20;9.30;;;;;;;;;;5050993;28;20100;-62
2022/02/23 20:00:12;;;;;;;16.25;6.50;;;;;;;;;;5049057;28;20028;-62
2022/02/23 20:02:39;;;;;;;16.10;6.07;;;;;;;;;;5049884;28;20043;-63
2022/02/23 20:05:05;;;;;;;13.88;5.53;;;;;;;;;;5051916;28;20477;-63
2022/02/23 20:07:33;;;;;;;15.63;5.38;;;;;;;;;;5038139;28;20037;-62
2022/02/23 20:09:59;;;;;;;15.18;6.03;;;;;;;;;;5032410;28;20365;-61
2022/02/23 20:12:26;;;;;;;17.10;5.82;;;;;;;;;;5032207;28;20120;-61
2022/02/23 20:14:52;;;;;;;19.88;5.88;;;;;;;;;;5033220;28;20064;-61
2022/02/23 20:17:19;;;;;;;20.15;6.43;;;;;;;;;;5031189;28;20060;-60
2022/02/23 20:19:45;;;;;;;15.82;6.40;;;;;;;;;;5032590;28;20096;-61
2022/02/23 20:22:11;;;;;;;14.38;6.25;;;;;;;;;;5032348;28;20029;-62
2022/02/23 20:24:37;;;;;;;18.13;6.40;;;;;;;;;;5032207;28;20032;-64
2022/02/23 20:27:03;;;;;;;17.30;7.03;;;;;;;;;;5032102;28;20026;-62
2022/02/23 20:29:29;;;;;;;13.65;6.18;;;;;;;;;;5032586;28;20040;-62
2022/02/23 20:31:55;;;;;;;21.60;6.68;;;;;;;;;;5036708;28;20505;-62
2022/02/23 20:34:21;;;;;;;14.60;6.60;;;;;;;;;;5050442;28;20101;-62
2022/02/23 20:36:47;;;;;;;17.63;6.95;;;;;;;;;;5041830;28;20044;-62
2022/02/23 20:39:13;;;;;;;18.90;6.72;;;;;;;;;;5040599;28;20018;-61
2022/02/23 20:41:39;;;;;;;17.05;7.05;;;;;;;;;;5050657;28;20755;-63
2022/02/23 20:44:07;;;;;;;18.90;6.50;;;;;;;;;;5050420;28;20112;-62
2022/02/23 20:46:33;;;;;;;22.45;7.45;;;;;;;;;;5050179;28;20092;-62